Time;durP1;ratioP1;P1;durP2;ratioP2;P2;SDS_P1;SDS_P2;PMS_P1;PMS_P2;Temp;Humidity;BMP_temperature;BMP_pressure;BME280_temperature;BME280_humidity;BME280_pressure;Samples;Min_cycle;Max_cycle;Signal;HPM_P1;HPM_P2
2021/08/24 01:05:25;;;;;;;;;;;21.60;82.10;;;;;;2600755;54;26356;31
2021/08/24 01:22:55;;;;;;;;;;;20.40;99.90;;;;;;2604088;54;19931;31
2021/08/24 01:32:56;;;;;;;;;;;20.40;99.90;;;;;;2603765;54;19942;31
2021/08/24 01:38:04;;;;;;;;;;;20.40;99.90;;;;;;2603942;54;19934;31
2021/08/24 01:43:03;;;;;;;;;;;20.50;99.90;;;;;;2603766;54;19942;31
2021/08/24 01:53:05;;;;;;;;;;;20.60;99.90;;;;;;2604079;54;19988;31
2021/08/24 01:58:04;;;;;;;;;;;20.60;99.90;;;;;;2603804;54;19934;31
2021/08/24 02:08:00;;;;;;;;;;;20.50;99.90;;;;;;2603902;54;19942;31
2021/08/24 02:10:29;;;;;;;;;;;20.60;99.90;;;;;;2604912;46;19947;31
2021/08/24 02:15:26;;;;;;;;;;;20.50;99.90;;;;;;2603780;54;19938;31
2021/08/24 02:17:58;;;;;;;;;;;20.60;99.90;;;;;;2618394;54;20018;-72
2021/08/24 02:20:25;;;;;;;;;;;20.50;99.90;;;;;;2619242;54;19946;-72
2021/08/24 02:22:58;;;;;;;;;;;20.50;99.90;;;;;;2619697;54;19945;-72
2021/08/24 02:25:29;;;;;;;;;;;20.50;99.90;;;;;;2618885;47;19938;-71
2021/08/24 02:27:58;;;;;;;;;;;20.50;99.90;;;;;;2619497;54;19964;-72
2021/08/24 02:30:24;;;;;;;;;;;20.50;99.90;;;;;;2619431;54;19950;-73
2021/08/24 02:32:50;;;;;;;;;;;20.50;99.90;;;;;;2618940;47;19958;-73
2021/08/24 02:35:22;;;;;;;;;;;20.50;99.90;;;;;;2619546;54;19965;-73
2021/08/24 02:37:49;;;;;;;;;;;20.50;99.90;;;;;;2619629;39;20337;-72
2021/08/24 02:40:18;;;;;;;;;;;20.50;99.90;;;;;;2619499;54;19963;-72
2021/08/24 02:42:48;;;;;;;;;;;20.50;99.90;;;;;;2618980;47;19938;-73
2021/08/24 02:45:15;;;;;;;;;;;20.40;99.90;;;;;;2618906;47;19939;-73
2021/08/24 02:47:41;;;;;;;;;;;20.40;99.90;;;;;;2620234;54;19955;-72
2021/08/24 02:50:08;;;;;;;;;;;20.40;99.90;;;;;;2619424;54;19997;-74
2021/08/24 02:52:34;;;;;;;;;;;20.40;99.90;;;;;;2618147;54;19988;-72
2021/08/24 02:55:00;;;;;;;;;;;20.30;99.90;;;;;;2619345;54;20410;-72
2021/08/24 02:57:26;;;;;;;;;;;20.30;99.90;;;;;;2618963;47;20022;-74
2021/08/24 02:59:55;;;;;;;;;;;20.30;99.90;;;;;;2618969;47;19946;-72
2021/08/24 03:02:22;;;;;;;;;;;20.30;99.90;;;;;;2618820;46;19945;-71
2021/08/24 03:04:48;;;;;;;;;;;20.20;99.90;;;;;;2619380;54;19939;-71
2021/08/24 03:07:15;;;;;;;;;;;20.20;99.90;;;;;;2619330;54;20502;-74
2021/08/24 03:09:41;;;;;;;;;;;20.10;99.90;;;;;;2619355;54;19945;-71
2021/08/24 03:12:11;;;;;;;;;;;20.10;99.90;;;;;;2619076;47;19939;-73
2021/08/24 03:14:46;;;;;;;;;;;20.10;99.90;;;;;;2619334;54;20030;-73
2021/08/24 03:17:16;;;;;;;;;;;20.10;99.90;;;;;;2619295;54;19939;-73
2021/08/24 03:19:42;;;;;;;;;;;20.10;99.90;;;;;;2619900;31;20424;-73
2021/08/24 03:22:08;;;;;;;;;;;20.20;99.90;;;;;;2618672;54;19938;-72
2021/08/24 03:24:35;;;;;;;;;;;20.20;99.90;;;;;;2618715;47;19945;-72
2021/08/24 03:27:01;;;;;;;;;;;20.10;99.90;;;;;;2619544;54;19938;-72
2021/08/24 03:29:27;;;;;;;;;;;20.10;99.90;;;;;;2620506;54;19946;-74
2021/08/24 03:31:54;;;;;;;;;;;20.10;99.90;;;;;;2619634;47;19987;-76
2021/08/24 03:34:23;;;;;;;;;;;20.10;99.90;;;;;;2621546;54;19994;-73
2021/08/24 03:36:49;;;;;;;;;;;20.00;99.90;;;;;;2621347;54;19938;-74
2021/08/24 03:39:15;;;;;;;;;;;20.00;99.90;;;;;;2622558;39;20030;-73
2021/08/24 03:41:40;;;;;;;;;;;20.00;99.90;;;;;;2623487;46;19962;-73
2021/08/24 03:44:07;;;;;;;;;;;19.90;99.90;;;;;;2623717;39;20334;-73
2021/08/24 03:46:32;;;;;;;;;;;19.90;99.90;;;;;;2621142;54;19939;-74
2021/08/24 03:48:58;;;;;;;;;;;19.90;99.90;;;;;;2620756;47;19939;-76
2021/08/24 03:51:27;;;;;;;;;;;19.90;99.90;;;;;;2623716;46;19938;-75
2021/08/24 03:53:52;;;;;;;;;;;19.80;99.90;;;;;;2624984;46;19942;-76
2021/08/24 03:56:18;;;;;;;;;;;19.80;99.90;;;;;;2620443;46;19966;-72
2021/08/24 03:58:44;;;;;;;;;;;19.80;99.90;;;;;;2620480;47;19952;-73
2021/08/24 04:01:10;;;;;;;;;;;19.80;99.90;;;;;;2621739;54;20042;-74
2021/08/24 04:03:36;;;;;;;;;;;19.80;99.90;;;;;;2621658;54;19938;-75
2021/08/24 04:06:02;;;;;;;;;;;19.80;99.90;;;;;;2620435;46;19983;-73
2021/08/24 04:08:31;;;;;;;;;;;19.80;99.90;;;;;;2620664;54;19939;-72
2021/08/24 04:10:57;;;;;;;;;;;19.90;99.90;;;;;;2620016;54;19939;-71
2021/08/24 04:13:22;;;;;;;;;;;19.90;99.90;;;;;;2619654;46;20425;-72
2021/08/24 04:15:48;;;;;;;;;;;20.00;99.90;;;;;;2619731;46;19945;-74
2021/08/24 04:18:15;;;;;;;;;;;20.00;99.90;;;;;;2619905;54;20033;-73
2021/08/24 04:20:41;;;;;;;;;;;20.00;99.90;;;;;;2619354;47;19945;-73
2021/08/24 04:23:11;;;;;;;;;;;20.00;99.90;;;;;;2620011;54;19947;-74
2021/08/24 04:25:40;;;;;;;;;;;20.00;99.90;;;;;;2619824;39;20319;-72
2021/08/24 04:28:05;;;;;;;;;;;20.00;99.90;;;;;;2619913;54;19991;-73
2021/08/24 04:30:31;;;;;;;;;;;19.90;99.90;;;;;;2620102;54;19938;-73
2021/08/24 04:32:57;;;;;;;;;;;19.80;99.90;;;;;;2619912;54;19938;-72
2021/08/24 04:35:23;;;;;;;;;;;19.80;99.90;;;;;;2619443;46;20407;-73
2021/08/24 04:37:48;;;;;;;;;;;19.80;99.90;;;;;;2620012;54;19938;-72
2021/08/24 04:40:14;;;;;;;;;;;19.80;99.90;;;;;;2620018;54;20516;-71
2021/08/24 04:42:43;;;;;;;;;;;19.80;99.90;;;;;;2619827;54;19938;-72
2021/08/24 04:45:09;;;;;;;;;;;19.80;99.90;;;;;;2619580;47;20415;-73
2021/08/24 04:47:35;;;;;;;;;;;19.70;99.90;;;;;;2620087;54;19938;-72
2021/08/24 04:50:01;;;;;;;;;;;19.80;99.90;;;;;;2620158;31;20391;-73
2021/08/24 04:52:26;;;;;;;;;;;19.70;99.90;;;;;;2619907;54;19939;-72
2021/08/24 04:54:52;;;;;;;;;;;19.70;99.90;;;;;;2619771;54;19946;-72
2021/08/24 04:57:18;;;;;;;;;;;19.70;99.90;;;;;;2619786;54;19942;-72
2021/08/24 04:59:46;;;;;;;;;;;19.70;99.90;;;;;;2619334;47;19938;-71
2021/08/24 05:02:12;;;;;;;;;;;19.70;99.90;;;;;;2620159;54;19946;-73
2021/08/24 05:04:38;;;;;;;;;;;19.70;99.90;;;;;;2620001;54;19982;-73
2021/08/24 05:07:03;;;;;;;;;;;19.70;99.90;;;;;;2619846;39;20315;-73
2021/08/24 05:09:29;;;;;;;;;;;19.70;99.90;;;;;;2619992;54;20449;-72
2021/08/24 05:11:56;;;;;;;;;;;19.70;99.90;;;;;;2619573;39;20322;-72
2021/08/24 05:14:21;;;;;;;;;;;19.70;99.90;;;;;;2619785;54;19939;-72
2021/08/24 05:16:54;;;;;;;;;;;19.70;99.90;;;;;;2619565;54;19938;-72
2021/08/24 05:19:20;;;;;;;;;;;19.70;99.90;;;;;;2619176;46;19939;-73
2021/08/24 05:21:46;;;;;;;;;;;19.60;99.90;;;;;;2619440;47;19973;-71
2021/08/24 05:24:12;;;;;;;;;;;19.60;99.90;;;;;;2619762;47;19946;-74
2021/08/24 05:26:37;;;;;;;;;;;19.60;99.90;;;;;;2619861;54;19945;-71
2021/08/24 05:29:03;;;;;;;;;;;19.60;99.90;;;;;;2619668;54;19939;-73
2021/08/24 05:31:29;;;;;;;;;;;19.60;99.90;;;;;;2619061;47;20046;-72
2021/08/24 05:33:58;;;;;;;;;;;19.60;99.90;;;;;;2619236;47;19983;-72
2021/08/24 05:36:23;;;;;;;;;;;19.60;99.90;;;;;;2619694;54;19942;-72
2021/08/24 05:38:49;;;;;;;;;;;19.70;99.90;;;;;;2619448;54;19962;-73
2021/08/24 05:41:15;;;;;;;;;;;19.60;99.90;;;;;;2619090;46;19971;-72
2021/08/24 05:43:41;;;;;;;;;;;19.60;99.90;;;;;;2619658;54;19939;-73
2021/08/24 05:46:08;;;;;;;;;;;19.60;99.90;;;;;;2619511;54;19957;-73
2021/08/24 05:48:34;;;;;;;;;;;19.60;99.90;;;;;;2619033;47;19938;-72
2021/08/24 05:51:06;;;;;;;;;;;19.60;99.90;;;;;;2619635;54;19938;-72
2021/08/24 05:53:31;;;;;;;;;;;19.70;99.90;;;;;;2618959;54;19939;-72
2021/08/24 05:55:57;;;;;;;;;;;19.60;99.90;;;;;;2619510;54;19938;-73
2021/08/24 05:58:23;;;;;;;;;;;19.70;99.90;;;;;;2618929;47;19938;-71
2021/08/24 06:00:49;;;;;;;;;;;19.70;99.90;;;;;;2620188;39;20330;-73
2021/08/24 06:03:14;;;;;;;;;;;19.70;99.90;;;;;;2620777;54;19996;-73
2021/08/24 06:05:41;;;;;;;;;;;19.80;99.90;;;;;;2620522;54;19939;-73
2021/08/24 06:08:10;;;;;;;;;;;19.80;99.90;;;;;;2620421;54;19964;-73
2021/08/24 06:10:36;;;;;;;;;;;19.90;99.90;;;;;;2619628;46;19939;-74
2021/08/24 06:13:02;;;;;;;;;;;19.90;99.90;;;;;;2619731;47;19939;-75
2021/08/24 06:15:28;;;;;;;;;;;20.00;99.90;;;;;;2620144;54;19938;-72
